sensor_id;sensor_type;location;lat;lon;timestamp;temperature;humidity
18392;DHT22;9322;50.932;5.318;2022-10-16T00:00:44;14.20;99.90
18392;DHT22;9322;50.932;5.318;2022-10-16T00:03:11;14.10;99.90
18392;DHT22;9322;50.932;5.318;2022-10-16T00:05:41;14.10;99.90
18392;DHT22;9322;50.932;5.318;2022-10-16T00:08:08;14.20;99.90
18392;DHT22;9322;50.932;5.318;2022-10-16T00:10:34;14.00;99.90
18392;DHT22;9322;50.932;5.318;2022-10-16T00:12:59;14.20;99.90
18392;DHT22;9322;50.932;5.318;2022-10-16T00:15:25;14.00;99.90
18392;DHT22;9322;50.932;5.318;2022-10-16T00:17:51;14.10;99.90
18392;DHT22;9322;50.932;5.318;2022-10-16T00:20:17;14.10;99.90
18392;DHT22;9322;50.932;5.318;2022-10-16T00:22:42;13.90;99.90
18392;DHT22;9322;50.932;5.318;2022-10-16T00:25:08;13.90;99.90
18392;DHT22;9322;50.932;5.318;2022-10-16T00:27:34;13.90;99.90
18392;DHT22;9322;50.932;5.318;2022-10-16T00:30:00;14.00;99.90
18392;DHT22;9322;50.932;5.318;2022-10-16T00:32:25;14.10;99.90
18392;DHT22;9322;50.932;5.318;2022-10-16T00:34:51;13.80;99.90
18392;DHT22;9322;50.932;5.318;2022-10-16T00:37:18;13.80;99.90
18392;DHT22;9322;50.932;5.318;2022-10-16T00:39:44;13.90;99.90
18392;DHT22;9322;50.932;5.318;2022-10-16T00:42:15;13.80;99.90
18392;DHT22;9322;50.932;5.318;2022-10-16T00:44:52;13.70;99.90
18392;DHT22;9322;50.932;5.318;2022-10-16T00:47:30;13.90;99.90
18392;DHT22;9322;50.932;5.318;2022-10-16T00:50:13;13.90;99.90
18392;DHT22;9322;50.932;5.318;2022-10-16T00:52:44;13.80;99.90
18392;DHT22;9322;50.932;5.318;2022-10-16T00:55:11;13.80;99.90
18392;DHT22;9322;50.932;5.318;2022-10-16T00:57:37;13.80;99.90
18392;DHT22;9322;50.932;5.318;2022-10-16T01:00:06;13.80;99.90
18392;DHT22;9322;50.932;5.318;2022-10-16T01:02:32;13.70;99.90
18392;DHT22;9322;50.932;5.318;2022-10-16T01:04:58;13.70;99.90
18392;DHT22;9322;50.932;5.318;2022-10-16T01:10:31;13.60;99.90
18392;DHT22;9322;50.932;5.318;2022-10-16T01:13:11;13.50;99.90
18392;DHT22;9322;50.932;5.318;2022-10-16T01:15:47;13.60;99.90
18392;DHT22;9322;50.932;5.318;2022-10-16T01:18:45;13.50;99.90
18392;DHT22;9322;50.932;5.318;2022-10-16T01:21:24;13.60;99.90
18392;DHT22;9322;50.932;5.318;2022-10-16T01:23:58;13.50;99.90
18392;DHT22;9322;50.932;5.318;2022-10-16T01:27:01;13.50;99.90
18392;DHT22;9322;50.932;5.318;2022-10-16T01:32:36;13.50;99.90
18392;DHT22;9322;50.932;5.318;2022-10-16T01:37:51;13.40;99.90
18392;DHT22;9322;50.932;5.318;2022-10-16T01:40:19;13.40;99.90
18392;DHT22;9322;50.932;5.318;2022-10-16T01:42:53;13.40;99.90
18392;DHT22;9322;50.932;5.318;2022-10-16T01:45:21;13.60;99.90
18392;DHT22;9322;50.932;5.318;2022-10-16T01:47:49;13.50;99.90
18392;DHT22;9322;50.932;5.318;2022-10-16T01:50:17;13.40;99.90
18392;DHT22;9322;50.932;5.318;2022-10-16T01:52:47;13.50;99.90
18392;DHT22;9322;50.932;5.318;2022-10-16T01:55:19;13.40;99.90
18392;DHT22;9322;50.932;5.318;2022-10-16T01:57:49;13.40;99.90
18392;DHT22;9322;50.932;5.318;2022-10-16T02:00:16;13.50;99.90
18392;DHT22;9322;50.932;5.318;2022-10-16T02:02:45;13.40;99.90
18392;DHT22;9322;50.932;5.318;2022-10-16T02:05:18;13.50;99.90
18392;DHT22;9322;50.932;5.318;2022-10-16T02:07:45;13.50;99.90
18392;DHT22;9322;50.932;5.318;2022-10-16T02:10:11;13.40;99.90
18392;DHT22;9322;50.932;5.318;2022-10-16T02:12:39;13.30;99.90
18392;DHT22;9322;50.932;5.318;2022-10-16T02:15:06;13.40;99.90
18392;DHT22;9322;50.932;5.318;2022-10-16T02:17:32;13.40;99.90
18392;DHT22;9322;50.932;5.318;2022-10-16T02:19:58;13.50;99.90
18392;DHT22;9322;50.932;5.318;2022-10-16T02:22:32;13.50;99.90
18392;DHT22;9322;50.932;5.318;2022-10-16T02:25:25;13.50;99.90
18392;DHT22;9322;50.932;5.318;2022-10-16T02:27:56;13.30;99.90
18392;DHT22;9322;50.932;5.318;2022-10-16T02:30:46;13.40;99.90
18392;DHT22;9322;50.932;5.318;2022-10-16T02:33:15;13.50;99.90
18392;DHT22;9322;50.932;5.318;2022-10-16T02:35:41;13.40;99.90
18392;DHT22;9322;50.932;5.318;2022-10-16T02:38:09;13.40;99.90
18392;DHT22;9322;50.932;5.318;2022-10-16T02:40:36;13.40;99.90
18392;DHT22;9322;50.932;5.318;2022-10-16T02:43:04;13.50;99.90
18392;DHT22;9322;50.932;5.318;2022-10-16T02:45:30;13.40;99.90
18392;DHT22;9322;50.932;5.318;2022-10-16T02:47:56;13.50;99.90
18392;DHT22;9322;50.932;5.318;2022-10-16T02:50:22;13.40;99.90
18392;DHT22;9322;50.932;5.318;2022-10-16T02:52:48;13.60;99.90
18392;DHT22;9322;50.932;5.318;2022-10-16T02:55:14;13.50;99.90
18392;DHT22;9322;50.932;5.318;2022-10-16T02:57:39;13.50;99.90
18392;DHT22;9322;50.932;5.318;2022-10-16T03:00:07;13.40;99.90
18392;DHT22;9322;50.932;5.318;2022-10-16T03:02:33;13.40;99.90
18392;DHT22;9322;50.932;5.318;2022-10-16T03:04:59;13.40;99.90
18392;DHT22;9322;50.932;5.318;2022-10-16T03:07:24;13.60;99.90
18392;DHT22;9322;50.932;5.318;2022-10-16T03:09:50;13.40;99.90
18392;DHT22;9322;50.932;5.318;2022-10-16T03:12:16;13.40;99.90
18392;DHT22;9322;50.932;5.318;2022-10-16T03:14:41;13.70;99.90
18392;DHT22;9322;50.932;5.318;2022-10-16T03:17:07;13.40;99.90
18392;DHT22;9322;50.932;5.318;2022-10-16T03:19:32;13.20;99.90
18392;DHT22;9322;50.932;5.318;2022-10-16T03:21:58;13.20;99.90
18392;DHT22;9322;50.932;5.318;2022-10-16T03:24:24;13.20;99.90
18392;DHT22;9322;50.932;5.318;2022-10-16T03:26:49;13.20;99.90
18392;DHT22;9322;50.932;5.318;2022-10-16T03:29:15;13.20;99.90
18392;DHT22;9322;50.932;5.318;2022-10-16T03:31:41;13.30;99.90
18392;DHT22;9322;50.932;5.318;2022-10-16T03:34:06;13.30;99.90
18392;DHT22;9322;50.932;5.318;2022-10-16T03:36:32;13.20;99.90
18392;DHT22;9322;50.932;5.318;2022-10-16T03:38:58;13.20;99.90
18392;DHT22;9322;50.932;5.318;2022-10-16T03:41:23;13.20;99.90
18392;DHT22;9322;50.932;5.318;2022-10-16T03:43:49;13.20;99.90
18392;DHT22;9322;50.932;5.318;2022-10-16T03:46:15;13.20;99.90
18392;DHT22;9322;50.932;5.318;2022-10-16T03:48:41;13.20;99.90
18392;DHT22;9322;50.932;5.318;2022-10-16T03:51:06;13.20;99.90
18392;DHT22;9322;50.932;5.318;2022-10-16T03:53:32;13.30;99.90
18392;DHT22;9322;50.932;5.318;2022-10-16T03:55:57;13.50;99.90
18392;DHT22;9322;50.932;5.318;2022-10-16T03:58:23;13.20;99.90
18392;DHT22;9322;50.932;5.318;2022-10-16T04:00:49;13.20;99.90
18392;DHT22;9322;50.932;5.318;2022-10-16T04:03:15;13.50;99.90
18392;DHT22;9322;50.932;5.318;2022-10-16T04:05:41;13.30;99.90
18392;DHT22;9322;50.932;5.318;2022-10-16T04:08:06;13.20;99.90
18392;DHT22;9322;50.932;5.318;2022-10-16T04:10:32;13.10;99.90
18392;DHT22;9322;50.932;5.318;2022-10-16T04:12:58;13.10;99.90
18392;DHT22;9322;50.932;5.318;2022-10-16T04:15:24;13.20;99.90
18392;DHT22;9322;50.932;5.318;2022-10-16T04:17:50;13.10;99.90
18392;DHT22;9322;50.932;5.318;2022-10-16T04:20:16;13.40;99.90
18392;DHT22;9322;50.932;5.318;2022-10-16T04:22:42;13.20;99.90
18392;DHT22;9322;50.932;5.318;2022-10-16T04:25:08;13.10;99.90
18392;DHT22;9322;50.932;5.318;2022-10-16T04:27:34;13.10;99.90
18392;DHT22;9322;50.932;5.318;2022-10-16T04:30:00;13.20;99.90
18392;DHT22;9322;50.932;5.318;2022-10-16T04:32:26;13.20;99.90
18392;DHT22;9322;50.932;5.318;2022-10-16T04:34:53;13.20;99.90
18392;DHT22;9322;50.932;5.318;2022-10-16T04:37:19;13.10;99.90
18392;DHT22;9322;50.932;5.318;2022-10-16T04:39:48;13.20;99.90
18392;DHT22;9322;50.932;5.318;2022-10-16T04:42:14;13.20;99.90
18392;DHT22;9322;50.932;5.318;2022-10-16T04:44:39;13.20;99.90
18392;DHT22;9322;50.932;5.318;2022-10-16T04:47:05;13.30;99.90
18392;DHT22;9322;50.932;5.318;2022-10-16T04:49:31;13.20;99.90
18392;DHT22;9322;50.932;5.318;2022-10-16T04:51:57;13.20;99.90
18392;DHT22;9322;50.932;5.318;2022-10-16T04:54:22;13.30;99.90
18392;DHT22;9322;50.932;5.318;2022-10-16T04:56:48;13.20;99.90
18392;DHT22;9322;50.932;5.318;2022-10-16T04:59:16;13.20;99.90
18392;DHT22;9322;50.932;5.318;2022-10-16T05:01:42;13.20;99.90
18392;DHT22;9322;50.932;5.318;2022-10-16T05:04:08;13.20;99.90
18392;DHT22;9322;50.932;5.318;2022-10-16T05:06:33;13.50;99.90
18392;DHT22;9322;50.932;5.318;2022-10-16T05:08:59;13.30;99.90
18392;DHT22;9322;50.932;5.318;2022-10-16T05:11:25;13.30;99.90
18392;DHT22;9322;50.932;5.318;2022-10-16T05:13:50;13.40;99.90
18392;DHT22;9322;50.932;5.318;2022-10-16T05:16:16;13.30;99.90
18392;DHT22;9322;50.932;5.318;2022-10-16T05:18:42;13.20;99.90
18392;DHT22;9322;50.932;5.318;2022-10-16T05:21:08;13.30;99.90
18392;DHT22;9322;50.932;5.318;2022-10-16T05:23:34;13.30;99.90
18392;DHT22;9322;50.932;5.318;2022-10-16T05:26:00;13.30;99.90
18392;DHT22;9322;50.932;5.318;2022-10-16T05:28:27;13.40;99.90
18392;DHT22;9322;50.932;5.318;2022-10-16T05:30:53;13.20;99.90
18392;DHT22;9322;50.932;5.318;2022-10-16T05:33:23;13.20;99.90
18392;DHT22;9322;50.932;5.318;2022-10-16T05:35:49;13.20;99.90
18392;DHT22;9322;50.932;5.318;2022-10-16T05:38:16;13.20;99.90
18392;DHT22;9322;50.932;5.318;2022-10-16T05:40:42;13.30;99.90
18392;DHT22;9322;50.932;5.318;2022-10-16T05:43:08;13.30;99.90
18392;DHT22;9322;50.932;5.318;2022-10-16T05:45:33;13.30;99.90
18392;DHT22;9322;50.932;5.318;2022-10-16T05:47:59;13.30;99.90
18392;DHT22;9322;50.932;5.318;2022-10-16T05:50:25;13.40;99.90
18392;DHT22;9322;50.932;5.318;2022-10-16T05:52:51;13.50;99.90
18392;DHT22;9322;50.932;5.318;2022-10-16T05:55:17;13.20;99.90
18392;DHT22;9322;50.932;5.318;2022-10-16T05:57:42;13.20;99.90
18392;DHT22;9322;50.932;5.318;2022-10-16T06:00:09;13.10;99.90
18392;DHT22;9322;50.932;5.318;2022-10-16T06:02:34;13.10;99.90
18392;DHT22;9322;50.932;5.318;2022-10-16T06:05:00;13.10;99.90
18392;DHT22;9322;50.932;5.318;2022-10-16T06:07:26;13.10;99.90
18392;DHT22;9322;50.932;5.318;2022-10-16T06:09:52;13.00;99.90
18392;DHT22;9322;50.932;5.318;2022-10-16T06:12:18;12.90;99.90
18392;DHT22;9322;50.932;5.318;2022-10-16T06:14:46;13.00;99.90
18392;DHT22;9322;50.932;5.318;2022-10-16T06:17:13;13.10;99.90
18392;DHT22;9322;50.932;5.318;2022-10-16T06:19:39;13.00;99.90
18392;DHT22;9322;50.932;5.318;2022-10-16T06:22:06;13.00;99.90
18392;DHT22;9322;50.932;5.318;2022-10-16T06:24:32;13.00;99.90
18392;DHT22;9322;50.932;5.318;2022-10-16T06:26:57;13.10;99.90
18392;DHT22;9322;50.932;5.318;2022-10-16T06:29:23;13.10;99.90
18392;DHT22;9322;50.932;5.318;2022-10-16T06:31:49;13.10;99.90
18392;DHT22;9322;50.932;5.318;2022-10-16T06:34:14;13.00;99.90
18392;DHT22;9322;50.932;5.318;2022-10-16T06:36:40;13.00;99.90
18392;DHT22;9322;50.932;5.318;2022-10-16T06:39:06;13.10;99.90
18392;DHT22;9322;50.932;5.318;2022-10-16T06:41:35;13.10;99.90
18392;DHT22;9322;50.932;5.318;2022-10-16T06:44:04;13.10;99.90
18392;DHT22;9322;50.932;5.318;2022-10-16T06:46:30;13.10;99.90
18392;DHT22;9322;50.932;5.318;2022-10-16T06:48:56;13.10;99.90
18392;DHT22;9322;50.932;5.318;2022-10-16T06:51:23;13.10;99.90
18392;DHT22;9322;50.932;5.318;2022-10-16T06:53:51;13.00;99.90
18392;DHT22;9322;50.932;5.318;2022-10-16T06:56:23;13.10;99.90
18392;DHT22;9322;50.932;5.318;2022-10-16T06:58:50;13.20;99.90
18392;DHT22;9322;50.932;5.318;2022-10-16T07:01:18;13.60;99.90
18392;DHT22;9322;50.932;5.318;2022-10-16T07:03:44;14.30;99.90
18392;DHT22;9322;50.932;5.318;2022-10-16T07:06:13;15.10;99.90
18392;DHT22;9322;50.932;5.318;2022-10-16T07:08:40;16.30;99.90
18392;DHT22;9322;50.932;5.318;2022-10-16T07:11:09;17.30;99.90
18392;DHT22;9322;50.932;5.318;2022-10-16T07:13:40;17.50;99.90
18392;DHT22;9322;50.932;5.318;2022-10-16T07:16:13;18.00;99.90
18392;DHT22;9322;50.932;5.318;2022-10-16T07:18:40;18.90;99.90
18392;DHT22;9322;50.932;5.318;2022-10-16T07:21:12;19.30;99.90
18392;DHT22;9322;50.932;5.318;2022-10-16T07:23:38;19.10;99.90
18392;DHT22;9322;50.932;5.318;2022-10-16T07:26:05;18.80;99.90
18392;DHT22;9322;50.932;5.318;2022-10-16T07:28:31;18.70;99.90
18392;DHT22;9322;50.932;5.318;2022-10-16T07:31:01;18.90;99.90
18392;DHT22;9322;50.932;5.318;2022-10-16T07:33:27;19.50;99.90
18392;DHT22;9322;50.932;5.318;2022-10-16T07:35:54;20.70;91.90
18392;DHT22;9322;50.932;5.318;2022-10-16T07:38:21;21.10;85.00
18392;DHT22;9322;50.932;5.318;2022-10-16T07:40:47;22.20;77.40
18392;DHT22;9322;50.932;5.318;2022-10-16T07:43:13;22.50;73.00
18392;DHT22;9322;50.932;5.318;2022-10-16T07:45:47;22.60;71.00
18392;DHT22;9322;50.932;5.318;2022-10-16T07:48:14;21.20;79.20
18392;DHT22;9322;50.932;5.318;2022-10-16T07:50:39;21.60;79.30
18392;DHT22;9322;50.932;5.318;2022-10-16T07:53:06;22.30;75.10
18392;DHT22;9322;50.932;5.318;2022-10-16T07:55:31;22.70;72.20
18392;DHT22;9322;50.932;5.318;2022-10-16T07:57:57;23.10;70.90
18392;DHT22;9322;50.932;5.318;2022-10-16T08:00:22;23.20;67.20
18392;DHT22;9322;50.932;5.318;2022-10-16T08:02:48;23.60;65.60
18392;DHT22;9322;50.932;5.318;2022-10-16T08:05:14;24.00;63.40
18392;DHT22;9322;50.932;5.318;2022-10-16T08:07:39;23.80;63.00
18392;DHT22;9322;50.932;5.318;2022-10-16T08:10:06;24.30;63.00
18392;DHT22;9322;50.932;5.318;2022-10-16T08:12:32;24.60;60.50
18392;DHT22;9322;50.932;5.318;2022-10-16T08:14:57;24.70;59.00
18392;DHT22;9322;50.932;5.318;2022-10-16T08:17:23;23.60;62.40
18392;DHT22;9322;50.932;5.318;2022-10-16T08:19:49;23.60;63.50
18392;DHT22;9322;50.932;5.318;2022-10-16T08:22:15;23.80;63.90
18392;DHT22;9322;50.932;5.318;2022-10-16T08:24:40;23.50;64.50
18392;DHT22;9322;50.932;5.318;2022-10-16T08:27:06;24.30;60.20
18392;DHT22;9322;50.932;5.318;2022-10-16T08:29:34;24.80;59.10
18392;DHT22;9322;50.932;5.318;2022-10-16T08:32:00;25.60;56.50
18392;DHT22;9322;50.932;5.318;2022-10-16T08:34:25;25.10;57.70
18392;DHT22;9322;50.932;5.318;2022-10-16T08:36:53;25.00;58.40
18392;DHT22;9322;50.932;5.318;2022-10-16T08:39:19;24.80;58.40
18392;DHT22;9322;50.932;5.318;2022-10-16T08:50:26;27.00;53.40
18392;DHT22;9322;50.932;5.318;2022-10-16T08:52:53;27.30;52.80
18392;DHT22;9322;50.932;5.318;2022-10-16T08:58:01;26.80;52.60
18392;DHT22;9322;50.932;5.318;2022-10-16T09:00:27;27.10;51.00
18392;DHT22;9322;50.932;5.318;2022-10-16T09:03:17;26.40;52.10
18392;DHT22;9322;50.932;5.318;2022-10-16T09:08:39;26.30;53.60
18392;DHT22;9322;50.932;5.318;2022-10-16T09:11:15;26.50;52.50
18392;DHT22;9322;50.932;5.318;2022-10-16T09:18:58;27.50;50.00
18392;DHT22;9322;50.932;5.318;2022-10-16T09:21:35;26.80;51.10
18392;DHT22;9322;50.932;5.318;2022-10-16T09:24:11;27.60;50.10
18392;DHT22;9322;50.932;5.318;2022-10-16T09:26:38;27.40;50.70
18392;DHT22;9322;50.932;5.318;2022-10-16T09:29:04;28.50;49.00
18392;DHT22;9322;50.932;5.318;2022-10-16T09:31:29;29.20;47.70
18392;DHT22;9322;50.932;5.318;2022-10-16T09:34:00;29.30;46.70
18392;DHT22;9322;50.932;5.318;2022-10-16T09:36:39;30.20;44.80
18392;DHT22;9322;50.932;5.318;2022-10-16T09:39:07;29.80;44.00
18392;DHT22;9322;50.932;5.318;2022-10-16T09:41:42;29.80;45.30
18392;DHT22;9322;50.932;5.318;2022-10-16T09:44:29;30.70;42.20
18392;DHT22;9322;50.932;5.318;2022-10-16T09:47:25;31.20;41.80
18392;DHT22;9322;50.932;5.318;2022-10-16T09:50:04;30.10;43.10
18392;DHT22;9322;50.932;5.318;2022-10-16T09:52:32;27.20;47.70
18392;DHT22;9322;50.932;5.318;2022-10-16T09:55:00;26.30;49.60
18392;DHT22;9322;50.932;5.318;2022-10-16T09:57:27;27.10;48.40
18392;DHT22;9322;50.932;5.318;2022-10-16T09:59:55;28.00;49.30
18392;DHT22;9322;50.932;5.318;2022-10-16T10:02:36;29.50;46.20
18392;DHT22;9322;50.932;5.318;2022-10-16T10:05:05;29.90;43.90
18392;DHT22;9322;50.932;5.318;2022-10-16T10:07:42;29.30;44.60
18392;DHT22;9322;50.932;5.318;2022-10-16T10:10:29;29.60;43.30
18392;DHT22;9322;50.932;5.318;2022-10-16T10:12:56;30.70;43.30
18392;DHT22;9322;50.932;5.318;2022-10-16T10:15:23;30.20;42.90
18392;DHT22;9322;50.932;5.318;2022-10-16T10:17:54;29.20;44.40
18392;DHT22;9322;50.932;5.318;2022-10-16T10:20:34;30.30;43.00
18392;DHT22;9322;50.932;5.318;2022-10-16T10:23:13;28.70;44.00
18392;DHT22;9322;50.932;5.318;2022-10-16T10:26:10;29.30;44.70
18392;DHT22;9322;50.932;5.318;2022-10-16T10:37:14;32.20;39.90
18392;DHT22;9322;50.932;5.318;2022-10-16T10:39:52;31.00;40.20
18392;DHT22;9322;50.932;5.318;2022-10-16T10:42:28;28.90;43.60
18392;DHT22;9322;50.932;5.318;2022-10-16T10:45:18;27.30;46.00
18392;DHT22;9322;50.932;5.318;2022-10-16T10:47:57;25.90;49.10
18392;DHT22;9322;50.932;5.318;2022-10-16T10:53:09;24.70;54.30
18392;DHT22;9322;50.932;5.318;2022-10-16T10:55:48;25.00;53.90
18392;DHT22;9322;50.932;5.318;2022-10-16T11:06:35;30.30;43.50
18392;DHT22;9322;50.932;5.318;2022-10-16T11:09:26;30.80;42.10
18392;DHT22;9322;50.932;5.318;2022-10-16T11:12:04;31.00;40.80
18392;DHT22;9322;50.932;5.318;2022-10-16T11:14:37;31.40;40.50
18392;DHT22;9322;50.932;5.318;2022-10-16T11:17:41;29.50;42.50
18392;DHT22;9322;50.932;5.318;2022-10-16T11:20:26;28.40;45.10
18392;DHT22;9322;50.932;5.318;2022-10-16T11:25:50;26.00;48.40
18392;DHT22;9322;50.932;5.318;2022-10-16T11:28:27;24.80;51.00
18392;DHT22;9322;50.932;5.318;2022-10-16T11:30:57;24.40;52.50
18392;DHT22;9322;50.932;5.318;2022-10-16T11:41:44;28.80;44.20
18392;DHT22;9322;50.932;5.318;2022-10-16T11:44:50;27.80;45.70
18392;DHT22;9322;50.932;5.318;2022-10-16T11:47:48;25.10;49.70
18392;DHT22;9322;50.932;5.318;2022-10-16T11:50:30;24.10;54.10
18392;DHT22;9322;50.932;5.318;2022-10-16T11:55:37;25.50;52.40
18392;DHT22;9322;50.932;5.318;2022-10-16T11:58:13;27.70;47.00
18392;DHT22;9322;50.932;5.318;2022-10-16T12:09:26;22.90;57.50
18392;DHT22;9322;50.932;5.318;2022-10-16T12:11:52;22.90;57.50
18392;DHT22;9322;50.932;5.318;2022-10-16T12:17:04;23.10;58.40
18392;DHT22;9322;50.932;5.318;2022-10-16T12:20:00;23.60;57.10
18392;DHT22;9322;50.932;5.318;2022-10-16T12:22:29;23.90;55.80
18392;DHT22;9322;50.932;5.318;2022-10-16T12:24:56;23.60;55.10
18392;DHT22;9322;50.932;5.318;2022-10-16T12:29:57;22.80;57.40
18392;DHT22;9322;50.932;5.318;2022-10-16T12:32:32;22.80;57.70
18392;DHT22;9322;50.932;5.318;2022-10-16T12:35:00;23.10;57.30
18392;DHT22;9322;50.932;5.318;2022-10-16T12:37:32;23.50;57.40
18392;DHT22;9322;50.932;5.318;2022-10-16T12:39:59;23.60;55.60
18392;DHT22;9322;50.932;5.318;2022-10-16T12:44:55;22.90;55.90
18392;DHT22;9322;50.932;5.318;2022-10-16T12:47:37;21.80;60.90
18392;DHT22;9322;50.932;5.318;2022-10-16T12:50:24;21.20;63.30
18392;DHT22;9322;50.932;5.318;2022-10-16T12:52:50;21.60;61.20
18392;DHT22;9322;50.932;5.318;2022-10-16T12:55:20;22.20;60.50
18392;DHT22;9322;50.932;5.318;2022-10-16T12:58:00;22.00;60.30
18392;DHT22;9322;50.932;5.318;2022-10-16T13:00:45;22.00;61.90
18392;DHT22;9322;50.932;5.318;2022-10-16T13:12:07;21.70;64.20
18392;DHT22;9322;50.932;5.318;2022-10-16T13:14:58;21.70;64.20
18392;DHT22;9322;50.932;5.318;2022-10-16T13:30:28;21.70;63.60
18392;DHT22;9322;50.932;5.318;2022-10-16T13:33:07;21.50;65.00
18392;DHT22;9322;50.932;5.318;2022-10-16T13:35:36;21.60;64.30
18392;DHT22;9322;50.932;5.318;2022-10-16T13:38:13;21.70;64.30
18392;DHT22;9322;50.932;5.318;2022-10-16T13:43:20;21.80;64.30
18392;DHT22;9322;50.932;5.318;2022-10-16T13:45:54;21.60;68.30
18392;DHT22;9322;50.932;5.318;2022-10-16T13:48:20;21.50;66.20
18392;DHT22;9322;50.932;5.318;2022-10-16T13:50:46;21.30;72.60
18392;DHT22;9322;50.932;5.318;2022-10-16T13:53:15;21.50;71.80
18392;DHT22;9322;50.932;5.318;2022-10-16T13:55:40;21.40;69.30
18392;DHT22;9322;50.932;5.318;2022-10-16T13:58:14;21.40;66.10
18392;DHT22;9322;50.932;5.318;2022-10-16T14:00:41;21.50;67.60
18392;DHT22;9322;50.932;5.318;2022-10-16T14:03:18;21.30;68.00
18392;DHT22;9322;50.932;5.318;2022-10-16T14:05:57;21.60;64.40
18392;DHT22;9322;50.932;5.318;2022-10-16T14:08:25;21.50;64.30
18392;DHT22;9322;50.932;5.318;2022-10-16T14:10:55;21.50;63.90
18392;DHT22;9322;50.932;5.318;2022-10-16T14:13:30;21.30;64.80
18392;DHT22;9322;50.932;5.318;2022-10-16T14:15:57;21.50;65.40
18392;DHT22;9322;50.932;5.318;2022-10-16T14:18:26;21.60;62.50
18392;DHT22;9322;50.932;5.318;2022-10-16T14:20:53;21.50;62.90
18392;DHT22;9322;50.932;5.318;2022-10-16T14:23:39;21.50;61.30
18392;DHT22;9322;50.932;5.318;2022-10-16T14:26:12;21.40;60.70
18392;DHT22;9322;50.932;5.318;2022-10-16T14:28:42;21.20;61.90
18392;DHT22;9322;50.932;5.318;2022-10-16T14:31:28;21.20;62.20
18392;DHT22;9322;50.932;5.318;2022-10-16T14:33:54;21.10;63.80
18392;DHT22;9322;50.932;5.318;2022-10-16T14:36:20;21.20;62.70
18392;DHT22;9322;50.932;5.318;2022-10-16T14:41:26;21.10;63.80
18392;DHT22;9322;50.932;5.318;2022-10-16T14:43:54;21.00;66.20
18392;DHT22;9322;50.932;5.318;2022-10-16T14:46:50;21.00;64.20
18392;DHT22;9322;50.932;5.318;2022-10-16T14:49:18;21.00;64.20
18392;DHT22;9322;50.932;5.318;2022-10-16T14:51:45;20.80;64.20
18392;DHT22;9322;50.932;5.318;2022-10-16T14:54:12;20.70;64.80
18392;DHT22;9322;50.932;5.318;2022-10-16T14:59:36;20.70;66.20
18392;DHT22;9322;50.932;5.318;2022-10-16T15:04:41;20.70;63.90
18392;DHT22;9322;50.932;5.318;2022-10-16T15:07:07;20.60;65.30
18392;DHT22;9322;50.932;5.318;2022-10-16T15:09:33;20.60;63.40
18392;DHT22;9322;50.932;5.318;2022-10-16T15:11:59;20.70;65.90
18392;DHT22;9322;50.932;5.318;2022-10-16T15:14:24;20.70;64.80
18392;DHT22;9322;50.932;5.318;2022-10-16T15:16:50;20.90;63.10
18392;DHT22;9322;50.932;5.318;2022-10-16T15:19:16;20.90;62.90
18392;DHT22;9322;50.932;5.318;2022-10-16T15:21:42;21.00;62.90
18392;DHT22;9322;50.932;5.318;2022-10-16T15:24:12;20.70;63.50
18392;DHT22;9322;50.932;5.318;2022-10-16T15:26:38;20.70;64.10
18392;DHT22;9322;50.932;5.318;2022-10-16T15:29:04;20.70;64.60
18392;DHT22;9322;50.932;5.318;2022-10-16T15:31:30;20.60;66.00
18392;DHT22;9322;50.932;5.318;2022-10-16T15:33:56;20.80;65.30
18392;DHT22;9322;50.932;5.318;2022-10-16T15:36:28;20.60;66.60
18392;DHT22;9322;50.932;5.318;2022-10-16T15:38:54;20.50;66.50
18392;DHT22;9322;50.932;5.318;2022-10-16T15:41:20;20.40;68.50
18392;DHT22;9322;50.932;5.318;2022-10-16T15:43:48;20.40;67.10
18392;DHT22;9322;50.932;5.318;2022-10-16T15:46:15;20.30;68.50
18392;DHT22;9322;50.932;5.318;2022-10-16T15:48:42;20.40;67.60
18392;DHT22;9322;50.932;5.318;2022-10-16T15:51:08;20.20;68.90
18392;DHT22;9322;50.932;5.318;2022-10-16T15:53:34;20.10;69.40
18392;DHT22;9322;50.932;5.318;2022-10-16T15:56:05;19.80;71.90
18392;DHT22;9322;50.932;5.318;2022-10-16T15:58:31;19.80;72.40
18392;DHT22;9322;50.932;5.318;2022-10-16T16:00:57;19.80;72.30
18392;DHT22;9322;50.932;5.318;2022-10-16T16:03:23;19.70;71.90
18392;DHT22;9322;50.932;5.318;2022-10-16T16:05:49;19.80;72.60
18392;DHT22;9322;50.932;5.318;2022-10-16T16:08:15;19.80;71.70
18392;DHT22;9322;50.932;5.318;2022-10-16T16:10:42;19.70;72.00
18392;DHT22;9322;50.932;5.318;2022-10-16T16:13:07;19.70;72.80
18392;DHT22;9322;50.932;5.318;2022-10-16T16:15:33;19.70;73.70
18392;DHT22;9322;50.932;5.318;2022-10-16T16:17:59;19.70;73.70
18392;DHT22;9322;50.932;5.318;2022-10-16T16:20:27;19.50;76.20
18392;DHT22;9322;50.932;5.318;2022-10-16T16:22:52;19.30;75.90
18392;DHT22;9322;50.932;5.318;2022-10-16T16:25:18;19.40;76.30
18392;DHT22;9322;50.932;5.318;2022-10-16T16:27:44;19.40;76.40
18392;DHT22;9322;50.932;5.318;2022-10-16T16:30:11;19.30;78.10
18392;DHT22;9322;50.932;5.318;2022-10-16T16:32:37;19.30;81.20
18392;DHT22;9322;50.932;5.318;2022-10-16T16:35:03;19.20;80.50
18392;DHT22;9322;50.932;5.318;2022-10-16T16:37:30;19.20;80.40
18392;DHT22;9322;50.932;5.318;2022-10-16T16:39:56;19.10;81.20
18392;DHT22;9322;50.932;5.318;2022-10-16T16:42:25;19.10;81.70
18392;DHT22;9322;50.932;5.318;2022-10-16T16:44:51;19.00;82.40
18392;DHT22;9322;50.932;5.318;2022-10-16T16:47:17;18.90;83.10
18392;DHT22;9322;50.932;5.318;2022-10-16T16:49:42;19.00;84.00
18392;DHT22;9322;50.932;5.318;2022-10-16T16:52:08;18.90;86.90
18392;DHT22;9322;50.932;5.318;2022-10-16T16:54:34;18.90;87.40
18392;DHT22;9322;50.932;5.318;2022-10-16T16:56:59;18.80;89.80
18392;DHT22;9322;50.932;5.318;2022-10-16T16:59:26;18.70;93.20
18392;DHT22;9322;50.932;5.318;2022-10-16T17:01:51;18.60;96.20
18392;DHT22;9322;50.932;5.318;2022-10-16T17:04:17;18.60;97.80
18392;DHT22;9322;50.932;5.318;2022-10-16T17:06:44;18.60;99.40
18392;DHT22;9322;50.932;5.318;2022-10-16T17:09:10;18.60;99.90
18392;DHT22;9322;50.932;5.318;2022-10-16T17:11:38;18.70;99.80
18392;DHT22;9322;50.932;5.318;2022-10-16T17:14:07;18.60;99.90
18392;DHT22;9322;50.932;5.318;2022-10-16T17:16:35;18.60;99.90
18392;DHT22;9322;50.932;5.318;2022-10-16T17:19:03;18.40;99.90
18392;DHT22;9322;50.932;5.318;2022-10-16T17:21:29;18.30;99.90
18392;DHT22;9322;50.932;5.318;2022-10-16T17:23:57;18.20;99.90
18392;DHT22;9322;50.932;5.318;2022-10-16T17:26:23;18.10;99.90
18392;DHT22;9322;50.932;5.318;2022-10-16T17:28:54;18.10;99.90
18392;DHT22;9322;50.932;5.318;2022-10-16T17:31:23;18.30;99.90
18392;DHT22;9322;50.932;5.318;2022-10-16T17:33:49;18.20;99.90
18392;DHT22;9322;50.932;5.318;2022-10-16T17:36:16;18.20;99.90
18392;DHT22;9322;50.932;5.318;2022-10-16T17:38:42;18.20;99.90
18392;DHT22;9322;50.932;5.318;2022-10-16T17:41:15;18.20;99.90
18392;DHT22;9322;50.932;5.318;2022-10-16T17:43:41;18.10;99.90
18392;DHT22;9322;50.932;5.318;2022-10-16T17:46:08;18.10;99.90
18392;DHT22;9322;50.932;5.318;2022-10-16T17:48:42;18.20;99.90